Time;durP1;ratioP1;P1;durP2;ratioP2;P2;SDS_P1;SDS_P2;PMS_P1;PMS_P2;Temp;Humidity;BMP_temperature;BMP_pressure;BME280_temperature;BME280_humidity;BME280_pressure;Samples;Min_cycle;Max_cycle;Signal;HPM_P1;HPM_P2
2022/09/18 00:00:47;;;;;;;13.00;7.30;;;;;;;10.01;82.05;97632.05;88645;1273;24158;-70
2022/09/18 00:03:05;;;;;;;27.70;7.80;;;;;;;9.95;81.97;97629.98;88512;1271;99951;-71
2022/09/18 00:05:07;;;;;;;18.50;6.60;;;;;;;9.91;82.24;97633.91;88615;1273;22685;-72
2022/09/18 00:07:09;;;;;;;26.70;7.60;;;;;;;9.87;82.32;97629.85;88557;1273;23514;-72
2022/09/18 00:09:13;;;;;;;41.60;6.90;;;;;;;9.82;82.23;97625.45;88438;1274;99496;-72
2022/09/18 00:11:15;;;;;;;10.80;6.10;;;;;;;9.79;82.43;97626.88;89747;1273;24598;-72
2022/09/18 00:13:17;;;;;;;35.40;6.40;;;;;;;9.74;82.38;97621.03;88453;1274;23012;-72
2022/09/18 00:15:18;;;;;;;13.70;6.50;;;;;;;9.67;82.69;97619.02;88232;1276;99695;-72
2022/09/18 00:17:20;;;;;;;17.40;7.00;;;;;;;9.63;82.59;97614.23;88418;1273;22738;-71
2022/09/18 00:19:22;;;;;;;15.70;7.10;;;;;;;9.59;82.77;97613.95;88510;1274;24604;-72
2022/09/18 00:21:24;;;;;;;13.30;6.50;;;;;;;9.56;82.85;97613.98;88246;1276;99353;-71
2022/09/18 00:23:26;;;;;;;13.80;8.10;;;;;;;9.53;83.09;97619.46;88367;1273;25269;-70
2022/09/18 00:25:28;;;;;;;16.20;7.60;;;;;;;9.50;83.05;97619.14;88390;1273;23653;-72
2022/09/18 00:27:30;;;;;;;19.10;7.20;;;;;;;9.48;83.09;97619.98;88370;1273;99966;-71
2022/09/18 00:29:32;;;;;;;13.90;6.60;;;;;;;9.45;82.86;97617.34;88417;1273;22598;-72
2022/09/18 00:31:35;;;;;;;10.20;6.70;;;;;;;9.44;83.23;97616.56;88467;1273;22766;-72
2022/09/18 00:33:38;;;;;;;23.20;6.90;;;;;;;9.41;83.21;97613.38;88468;1273;100161;-72
2022/09/18 00:35:42;;;;;;;19.10;7.10;;;;;;;9.38;83.26;97613.40;88367;1274;24814;-70
2022/09/18 00:37:44;;;;;;;16.00;7.50;;;;;;;9.36;83.17;97615.98;88502;1276;23114;-71
2022/09/18 00:39:45;;;;;;;12.30;6.40;;;;;;;9.36;83.29;97619.15;88522;1273;99043;-72
2022/09/18 00:41:47;;;;;;;9.60;6.10;;;;;;;9.34;83.33;97617.35;88399;1275;22799;-70
2022/09/18 00:43:55;;;;;;;10.00;5.90;;;;;;;9.32;83.45;97618.85;88482;1273;22580;-71
2022/09/18 00:46:05;;;;;;;17.70;5.70;;;;;;;9.30;83.49;97623.39;88305;1273;99318;-71
2022/09/18 00:48:08;;;;;;;6.70;5.40;;;;;;;9.28;83.27;97621.60;88487;1273;22905;-72
2022/09/18 00:50:15;;;;;;;24.00;5.90;;;;;;;9.25;83.29;97621.58;88547;1273;23684;-72
2022/09/18 00:52:20;;;;;;;12.90;5.50;;;;;;;9.24;83.81;97620.96;88681;1273;99142;-71
2022/09/18 00:54:28;;;;;;;7.50;5.00;;;;;;;9.22;83.63;97619.34;88436;1274;24352;-71
2022/09/18 00:56:29;;;;;;;10.30;5.80;;;;;;;9.21;83.56;97616.62;88846;1273;26681;-72
2022/09/18 00:58:31;;;;;;;20.60;7.30;;;;;;;9.19;83.62;97615.81;88198;1276;99127;-71
2022/09/18 01:00:33;;;;;;;11.30;6.70;;;;;;;9.19;83.85;97620.23;88513;1273;25343;-71
2022/09/18 01:02:34;;;;;;;20.50;7.40;;;;;;;9.19;83.79;97616.73;88395;1273;22606;-72
2022/09/18 01:04:37;;;;;;;19.00;7.40;;;;;;;9.16;83.95;97615.48;88423;1273;98946;-72
2022/09/18 01:07:10;;;;;;;11.40;7.20;;;;;;;9.16;83.67;97614.61;88329;1273;24435;-72
2022/09/18 01:09:32;;;;;;;14.50;6.60;;;;;;;9.15;83.80;97616.99;88336;1273;99265;-71
2022/09/18 01:11:43;;;;;;;;;;;;;;;9.14;83.65;97614.06;88479;1276;35039;-72
2022/09/18 01:13:59;;;;;;;14.20;6.50;;;;;;;9.13;83.60;97616.09;88583;1273;25071;-71
2022/09/18 01:16:13;;;;;;;23.00;6.50;;;;;;;9.10;84.10;97610.85;88418;1271;99040;-70
2022/09/18 01:18:21;;;;;;;43.10;7.20;;;;;;;9.12;83.95;97610.86;88550;1273;22761;-72
2022/09/18 01:20:47;;;;;;;14.10;6.90;;;;;;;9.13;84.08;97616.23;88480;1273;23252;-71
2022/09/18 01:23:29;;;;;;;15.50;7.50;;;;;;;9.13;84.10;97617.51;88460;1273;99117;-71
2022/09/18 01:26:07;;;;;;;12.30;6.70;;;;;;;9.12;84.14;97615.42;88359;1273;25230;-70
2022/09/18 01:28:19;;;;;;;15.80;6.20;;;;;;;9.11;84.18;97615.32;88411;1273;97987;-72
2022/09/18 01:30:21;;;;;;;11.90;6.30;;;;;;;9.10;83.80;97615.56;88310;1273;25394;-73
2022/09/18 01:32:31;;;;;;;12.90;5.90;;;;;;;9.09;84.23;97612.30;88360;1273;22547;-72
2022/09/18 01:34:42;;;;;;;15.90;6.00;;;;;;;9.08;84.27;97611.16;88443;1273;99229;-73
2022/09/18 01:36:50;;;;;;;10.00;5.90;;;;;;;9.06;84.33;97612.28;88516;1273;25255;-71
2022/09/18 01:38:56;;;;;;;13.90;6.80;;;;;;;9.06;84.26;97616.23;88428;1272;22835;-71
2022/09/18 01:41:05;;;;;;;14.30;6.00;;;;;;;9.05;84.38;97617.98;88387;1273;99391;-72
2022/09/18 01:43:10;;;;;;;20.40;6.00;;;;;;;9.04;84.02;97618.58;88313;1274;22638;-71
2022/09/18 01:45:18;;;;;;;15.60;5.70;;;;;;;9.02;83.98;97620.27;88188;1274;99126;-71
2022/09/18 01:47:25;;;;;;;6.90;5.00;;;;;;;9.01;84.13;97620.88;88388;1274;24482;-71
2022/09/18 01:49:35;;;;;;;13.60;4.90;;;;;;;8.99;84.28;97624.45;89229;1273;22627;-69
2022/09/18 01:51:49;;;;;;;11.70;5.70;;;;;;;8.97;84.27;97622.52;88417;1273;99243;-73
2022/09/18 01:53:57;;;;;;;15.10;5.30;;;;;;;8.96;84.23;97624.49;88494;1273;24252;-72
2022/09/18 01:56:05;;;;;;;14.70;6.00;;;;;;;8.95;84.11;97624.91;88472;1274;22736;-72
2022/09/18 01:58:12;;;;;;;13.00;5.80;;;;;;;8.93;84.30;97627.63;88226;1274;100560;-72
2022/09/18 02:00:14;;;;;;;32.70;5.90;;;;;;;8.92;84.22;97627.39;88398;1273;24703;-71
2022/09/18 02:02:29;;;;;;;9.10;5.60;;;;;;;8.90;84.34;97630.45;88520;1273;22612;-71
2022/09/18 02:04:38;;;;;;;11.50;5.30;;;;;;;8.89;84.24;97635.96;88521;1273;98987;-72
2022/09/18 02:06:52;;;;;;;6.60;4.90;;;;;;;8.87;84.53;97632.75;88522;1273;26639;-72
2022/09/18 02:08:56;;;;;;;14.70;4.70;;;;;;;8.85;84.33;97640.23;88331;1274;24134;-71
2022/09/18 02:11:09;;;;;;;12.40;5.40;;;;;;;8.83;84.57;97639.48;88314;1273;99457;-71
2022/09/18 02:13:15;;;;;;;19.40;6.20;;;;;;;8.82;84.27;97639.74;88377;1276;23146;-72
2022/09/18 02:15:18;;;;;;;24.10;5.20;;;;;;;8.80;84.43;97640.02;88568;1273;99623;-71
2022/09/18 02:17:27;;;;;;;21.50;5.10;;;;;;;8.77;84.29;97639.51;88556;1273;22776;-71
2022/09/18 02:19:43;;;;;;;9.50;4.80;;;;;;;8.77;84.57;97642.52;88374;1276;23527;-73
2022/09/18 02:21:47;;;;;;;22.50;5.50;;;;;;;8.76;84.48;97644.70;89228;1273;98907;-72
2022/09/18 02:23:50;;;;;;;25.90;6.30;;;;;;;8.74;84.27;97646.18;88487;1273;23609;-71
2022/09/18 02:25:57;;;;;;;22.20;5.80;;;;;;;8.74;84.46;97643.77;88491;1273;22907;-71
2022/09/18 02:28:01;;;;;;;25.00;5.60;;;;;;;8.73;84.74;97643.08;88521;1275;100332;-70
2022/09/18 02:30:04;;;;;;;12.60;4.80;;;;;;;8.73;84.43;97644.69;88484;1273;22690;-71
2022/09/18 02:32:06;;;;;;;15.70;5.30;;;;;;;8.71;84.42;97644.11;88388;1273;22550;-73
2022/09/18 02:34:11;;;;;;;14.40;5.10;;;;;;;8.69;84.29;97646.31;88315;1273;99107;-72
2022/09/18 02:36:34;;;;;;;9.10;4.50;;;;;;;8.68;84.35;97645.99;88442;1273;23135;-72
2022/09/18 02:39:27;;;;;;;12.10;5.10;;;;;;;8.66;84.66;97647.34;88586;1273;22595;-73
2022/09/18 02:41:54;;;;;;;16.20;5.30;;;;;;;8.64;84.65;97645.59;88172;1280;25318;-71
2022/09/18 02:44:12;;;;;;;18.90;5.70;;;;;;;8.64;84.66;97641.73;88247;1280;22721;-71
2022/09/18 02:46:40;;;;;;;17.50;5.20;;;;;;;8.63;84.57;97647.36;88142;1280;99246;-72
2022/09/18 02:49:21;;;;;;;10.90;4.80;;;;;;;8.63;84.41;97650.38;88164;1279;22702;-72
2022/09/18 02:51:52;;;;;;;17.70;4.90;;;;;;;8.61;84.59;97649.98;87972;1280;98982;-72
2022/09/18 02:54:12;;;;;;;14.80;5.30;;;;;;;8.60;84.70;97652.48;87648;1286;25498;-71
2022/09/18 02:56:35;;;;;;;13.60;5.20;;;;;;;8.59;84.70;97653.94;87504;1288;22604;-72
2022/09/18 02:58:46;;;;;;;13.80;5.20;;;;;;;8.58;84.80;97653.11;87690;1285;97962;-70
2022/09/18 03:00:49;;;;;;;21.20;6.10;;;;;;;8.57;84.56;97656.86;88090;1284;26774;-72
2022/09/18 03:02:51;;;;;;;25.20;5.70;;;;;;;8.57;84.89;97654.23;87640;1285;25275;-72
2022/09/18 03:04:53;;;;;;;20.60;7.40;;;;;;;8.57;84.45;97654.60;87544;1286;98159;-70
2022/09/18 03:06:55;;;;;;;14.50;6.90;;;;;;;8.58;84.72;97656.30;87576;1286;22578;-72
2022/09/18 03:08:56;;;;;;;16.30;5.90;;;;;;;8.57;84.74;97653.16;87354;1287;22609;-71
2022/09/18 03:10:58;;;;;;;12.50;7.00;;;;;;;8.58;84.73;97655.93;87407;1287;99262;-72
2022/09/18 03:13:00;;;;;;;26.10;6.70;;;;;;;8.58;84.79;97655.94;87506;1287;22704;-72
2022/09/18 03:15:02;;;;;;;16.80;7.10;;;;;;;8.57;84.57;97655.30;87701;1286;24229;-71
2022/09/18 03:17:03;;;;;;;18.10;6.80;;;;;;;8.56;84.76;97655.19;87581;1285;98976;-72
2022/09/18 03:19:05;;;;;;;18.00;7.40;;;;;;;8.54;84.69;97655.09;87771;1284;22700;-71
2022/09/18 03:21:07;;;;;;;20.40;6.80;;;;;;;8.53;84.65;97653.07;87781;1281;99581;-71
2022/09/18 03:23:09;;;;;;;22.00;7.40;;;;;;;8.53;84.78;97652.88;88000;1283;22561;-73
2022/09/18 03:25:13;;;;;;;17.50;7.60;;;;;;;8.53;84.89;97652.34;88078;1280;24212;-73
2022/09/18 03:27:17;;;;;;;25.60;7.80;;;;;;;8.53;84.87;97653.45;88125;1280;99913;-72
2022/09/18 03:29:19;;;;;;;18.60;7.00;;;;;;;8.52;84.80;97654.55;88158;1280;22767;-72
2022/09/18 03:31:21;;;;;;;33.50;8.20;;;;;;;8.51;84.65;97659.13;88027;1277;25259;-72
2022/09/18 03:33:22;;;;;;;18.90;6.90;;;;;;;8.52;84.97;97656.31;88538;1274;100851;-71
2022/09/18 03:35:24;;;;;;;19.90;6.70;;;;;;;8.52;84.73;97658.23;88519;1274;22669;-71
2022/09/18 03:37:25;;;;;;;20.70;7.10;;;;;;;8.51;84.47;97660.70;88532;1274;23796;-71
2022/09/18 03:39:27;;;;;;;13.10;7.20;;;;;;;8.50;84.72;97664.77;88500;1274;99623;-71
2022/09/18 03:41:29;;;;;;;22.30;7.80;;;;;;;8.50;84.76;97669.50;88527;1274;23991;-72
2022/09/18 03:43:30;;;;;;;18.60;6.60;;;;;;;8.50;84.72;97667.98;88444;1274;23241;-71
2022/09/18 03:45:32;;;;;;;20.20;7.30;;;;;;;8.49;84.83;97671.73;88451;1274;99494;-72
2022/09/18 03:47:34;;;;;;;20.10;7.20;;;;;;;8.48;84.81;97670.73;88410;1274;25941;-72
2022/09/18 03:49:35;;;;;;;23.70;6.50;;;;;;;8.47;85.03;97670.77;88478;1271;22569;-71
2022/09/18 03:51:37;;;;;;;19.90;6.90;;;;;;;8.41;84.79;97662.02;88376;1274;98938;-73
2022/09/18 03:53:39;;;;;;;21.20;6.90;;;;;;;8.45;84.89;97672.13;88265;1274;24378;-73
2022/09/18 03:55:41;;;;;;;24.80;6.60;;;;;;;8.44;84.89;97677.59;88575;1274;24405;-72
2022/09/18 03:57:45;;;;;;;13.00;6.20;;;;;;;8.43;84.95;97677.62;88395;1274;99010;-72
2022/09/18 03:59:47;;;;;;;12.90;6.30;;;;;;;8.42;85.03;97675.77;88581;1274;22594;-72
2022/09/18 04:01:49;;;;;;;16.00;7.10;;;;;;;8.41;84.87;97680.54;88515;1274;22705;-72
2022/09/18 04:03:51;;;;;;;19.70;6.90;;;;;;;8.39;85.05;97682.61;88414;1274;100208;-72
2022/09/18 04:05:52;;;;;;;19.60;7.20;;;;;;;8.38;84.85;97685.31;88596;1274;24247;-72
2022/09/18 04:07:54;;;;;;;32.80;7.50;;;;;;;8.37;84.70;97686.41;88521;1276;22625;-72
2022/09/18 04:09:55;;;;;;;20.20;7.10;;;;;;;8.36;85.35;97688.02;88479;1275;99544;-71
2022/09/18 04:11:57;;;;;;;14.70;7.60;;;;;;;8.34;84.85;97688.64;88636;1271;22571;-72
2022/09/18 04:13:58;;;;;;;26.30;8.00;;;;;;;8.33;85.18;97689.79;88538;1274;24007;-72
2022/09/18 04:16:01;;;;;;;17.50;8.10;;;;;;;8.32;85.04;97688.75;88497;1274;99337;-71
2022/09/18 04:18:02;;;;;;;25.00;8.20;;;;;;;8.33;85.04;97689.27;88382;1274;22559;-73
2022/09/18 04:20:05;;;;;;;20.00;8.40;;;;;;;8.31;84.74;97687.77;88633;1271;23039;-73
2022/09/18 04:22:07;;;;;;;20.40;8.10;;;;;;;8.31;85.03;97691.27;88488;1275;99333;-74
2022/09/18 04:24:08;;;;;;;19.60;8.80;;;;;;;8.30;85.01;97692.95;88601;1274;22598;-72
2022/09/18 04:26:10;;;;;;;20.10;8.00;;;;;;;8.27;84.93;97692.40;88652;1274;22683;-73
2022/09/18 04:28:12;;;;;;;24.80;9.10;;;;;;;8.24;85.07;97694.88;88452;1274;99704;-73
2022/09/18 04:30:15;;;;;;;18.20;8.20;;;;;;;8.22;84.92;97691.67;88382;1274;22744;-72
2022/09/18 04:32:16;;;;;;;19.70;7.70;;;;;;;8.21;85.02;97695.75;88560;1274;22703;-72
2022/09/18 04:34:18;;;;;;;13.40;7.10;;;;;;;8.19;84.88;97695.49;88584;1274;100446;-72
2022/09/18 04:36:19;;;;;;;16.10;7.30;;;;;;;8.18;84.86;97695.89;88614;1274;23275;-73
2022/09/18 04:38:26;;;;;;;28.80;7.20;;;;;;;8.17;84.79;97701.05;88528;1274;23675;-73
2022/09/18 04:40:28;;;;;;;28.70;8.00;;;;;;;8.17;85.07;97702.99;88498;1274;99328;-74
2022/09/18 04:42:30;;;;;;;18.30;8.80;;;;;;;8.15;85.09;97706.59;88418;1275;24414;-74
2022/09/18 04:44:31;;;;;;;31.80;9.30;;;;;;;8.13;85.00;97704.77;88497;1274;22573;-71
2022/09/18 04:46:33;;;;;;;19.10;9.70;;;;;;;8.11;84.85;97703.48;88491;1274;99624;-74
2022/09/18 04:48:35;;;;;;;32.30;9.70;;;;;;;8.11;85.01;97702.99;88481;1277;22639;-72
2022/09/18 04:50:36;;;;;;;30.50;10.20;;;;;;;8.10;84.95;97703.92;88480;1277;26024;-73
2022/09/18 04:52:38;;;;;;;25.00;10.10;;;;;;;8.09;84.89;97706.60;88357;1274;99559;-74
2022/09/18 04:54:40;;;;;;;23.60;9.30;;;;;;;8.08;84.82;97709.47;88509;1274;22628;-73
2022/09/18 04:56:41;;;;;;;24.70;9.60;;;;;;;8.08;85.22;97711.58;88512;1273;22567;-73
2022/09/18 04:58:43;;;;;;;18.80;8.30;;;;;;;8.07;84.98;97714.95;88623;1274;99007;-73
2022/09/18 05:00:49;;;;;;;22.70;8.10;;;;;;;8.07;85.07;97714.08;88376;1277;24774;-72
2022/09/18 05:02:50;;;;;;;16.70;7.20;;;;;;;8.07;85.01;97715.30;89004;1272;22789;-72
2022/09/18 05:04:52;;;;;;;21.00;7.40;;;;;;;8.07;84.91;97718.46;88577;1271;99419;-74
2022/09/18 05:06:54;;;;;;;14.60;7.00;;;;;;;8.06;85.01;97713.77;88568;1274;22802;-74
2022/09/18 05:08:57;;;;;;;10.20;6.50;;;;;;;8.04;85.02;97714.06;88528;1274;22735;-72
2022/09/18 05:11:00;;;;;;;18.30;7.40;;;;;;;8.04;85.12;97715.84;88515;1274;99016;-73
2022/09/18 05:13:01;;;;;;;13.00;6.40;;;;;;;8.03;85.22;97720.42;88482;1274;23932;-73
2022/09/18 05:15:04;;;;;;;15.00;6.10;;;;;;;8.03;85.28;97721.48;88431;1277;26711;-74
2022/09/18 05:17:06;;;;;;;25.00;7.20;;;;;;;8.02;84.93;97726.92;88482;1274;24051;-73
2022/09/18 05:19:08;;;;;;;12.20;5.90;;;;;;;8.01;85.20;97728.23;88528;1273;22756;-75
2022/09/18 05:21:10;;;;;;;20.00;6.90;;;;;;;8.00;85.40;97726.00;88529;1274;100154;-73
2022/09/18 05:23:12;;;;;;;18.20;6.40;;;;;;;8.00;85.06;97727.05;88413;1275;23067;-74
2022/09/18 05:25:14;;;;;;;18.40;7.30;;;;;;;8.00;85.29;97727.02;88447;1277;22612;-74
2022/09/18 05:27:16;;;;;;;17.50;6.10;;;;;;;8.00;85.23;97729.14;88437;1274;98244;-73
2022/09/18 05:29:18;;;;;;;15.30;6.20;;;;;;;8.00;85.53;97732.44;88561;1274;23975;-73
2022/09/18 05:31:20;;;;;;;11.80;6.50;;;;;;;8.01;85.21;97733.11;88634;1274;22708;-74
2022/09/18 05:33:21;;;;;;;17.50;6.80;;;;;;;8.02;85.34;97733.59;88467;1274;98328;-71
2022/09/18 05:35:25;;;;;;;18.50;6.10;;;;;;;8.02;85.36;97730.59;88602;1274;22606;-74
2022/09/18 05:37:27;;;;;;;14.30;6.20;;;;;;;8.04;85.03;97730.36;88465;1274;23749;-73
2022/09/18 05:39:28;;;;;;;20.30;6.60;;;;;;;8.04;85.35;97731.02;88524;1274;99438;-73
2022/09/18 05:41:30;;;;;;;18.50;6.50;;;;;;;8.05;85.26;97728.70;88674;1274;23965;-74
2022/09/18 05:43:31;;;;;;;14.60;6.20;;;;;;;8.07;85.18;97730.52;88471;1274;24294;-73
2022/09/18 05:45:33;;;;;;;18.80;6.60;;;;;;;8.07;85.50;97732.05;88544;1274;99751;-73
2022/09/18 05:47:35;;;;;;;11.90;5.70;;;;;;;8.09;85.25;97735.11;88316;1274;24817;-73
2022/09/18 05:49:37;;;;;;;14.90;6.40;;;;;;;8.11;85.11;97734.98;88586;1275;22714;-73
2022/09/18 05:51:39;;;;;;;14.60;7.50;;;;;;;8.13;85.35;97731.90;88334;1275;97823;-73
2022/09/18 05:53:41;;;;;;;11.50;6.70;;;;;;;8.14;85.51;97728.17;88699;1274;22685;-72
2022/09/18 05:55:43;;;;;;;14.00;7.10;;;;;;;8.16;85.38;97731.75;88587;1274;23288;-73
2022/09/18 05:57:45;;;;;;;17.10;7.40;;;;;;;8.17;85.40;97732.38;88505;1273;99945;-73
2022/09/18 05:59:46;;;;;;;19.40;7.40;;;;;;;8.18;85.08;97732.33;88736;1274;22639;-73
2022/09/18 06:01:50;;;;;;;15.00;7.90;;;;;;;8.19;85.25;97733.14;88554;1277;23436;-74
2022/09/18 06:03:52;;;;;;;18.60;7.20;;;;;;;8.21;85.24;97734.25;88652;1274;98938;-74
2022/09/18 06:05:54;;;;;;;13.90;7.70;;;;;;;8.23;85.27;97732.89;88634;1275;22508;-72
2022/09/18 06:08:00;;;;;;;21.40;8.60;;;;;;;8.25;85.29;97735.36;88689;1276;22668;-76
2022/09/18 06:10:03;;;;;;;14.00;7.50;;;;;;;8.29;85.40;97730.61;88718;1274;99610;-74
2022/09/18 06:12:05;;;;;;;16.60;7.80;;;;;;;8.33;85.45;97736.66;88558;1274;22631;-74
2022/09/18 06:14:07;;;;;;;15.90;7.90;;;;;;;8.38;85.37;97731.84;88555;1274;25656;-73
2022/09/18 06:16:09;;;;;;;18.80;8.30;;;;;;;8.43;85.45;97736.27;88515;1274;100032;-74
2022/09/18 06:18:13;;;;;;;17.00;8.60;;;;;;;8.48;85.36;97734.26;88687;1274;26007;-74
2022/09/18 06:20:15;;;;;;;14.50;7.80;;;;;;;8.54;85.57;97738.64;88387;1277;24322;-74
2022/09/18 06:22:17;;;;;;;19.90;8.60;;;;;;;8.58;85.34;97737.14;88509;1275;98925;-74
2022/09/18 06:24:19;;;;;;;16.60;7.80;;;;;;;8.64;85.39;97742.93;88683;1274;22751;-73
2022/09/18 06:26:21;;;;;;;15.40;8.00;;;;;;;8.69;85.55;97744.73;88715;1274;22585;-74
2022/09/18 06:28:22;;;;;;;16.70;8.00;;;;;;;8.72;85.29;97745.26;88614;1274;99217;-75
2022/09/18 06:30:28;;;;;;;17.20;8.00;;;;;;;8.77;85.13;97745.01;88511;1277;22647;-74
2022/09/18 06:32:31;;;;;;;11.90;8.20;;;;;;;8.80;85.10;97746.55;88802;1277;24536;-75
2022/09/18 06:34:32;;;;;;;17.00;8.10;;;;;;;8.84;85.25;97746.80;88499;1277;99172;-73
2022/09/18 06:36:34;;;;;;;14.60;7.40;;;;;;;8.87;85.30;97748.03;88678;1274;24259;-75
2022/09/18 06:38:35;;;;;;;9.80;7.50;;;;;;;8.92;85.16;97753.55;88582;1274;23606;-74
2022/09/18 06:40:37;;;;;;;13.90;6.50;;;;;;;8.93;84.96;97748.55;88627;1274;98900;-75
2022/09/18 06:42:39;;;;;;;13.60;7.10;;;;;;;8.93;84.81;97748.70;88470;1274;24259;-74
2022/09/18 06:44:41;;;;;;;13.90;8.00;;;;;;;8.94;85.01;97754.92;88435;1275;22701;-74
2022/09/18 06:46:43;;;;;;;8.00;7.00;;;;;;;8.96;84.88;97752.73;88489;1275;99711;-74
2022/09/18 06:48:47;;;;;;;10.30;8.00;;;;;;;8.99;84.84;97748.36;88794;1275;25659;-73
2022/09/18 06:50:58;;;;;;;12.60;6.10;;;;;;;9.03;85.06;97750.52;88700;1274;22605;-74
2022/09/18 06:53:04;;;;;;;16.70;6.70;;;;;;;9.10;84.74;97754.02;89063;1274;99515;-73
2022/09/18 06:55:06;;;;;;;10.90;7.00;;;;;;;9.15;84.73;97750.16;88677;1274;22666;-73
2022/09/18 06:57:08;;;;;;;13.00;6.80;;;;;;;9.20;84.69;97752.65;88469;1275;99750;-74
2022/09/18 06:59:10;;;;;;;19.20;6.50;;;;;;;9.25;84.58;97752.52;88581;1274;24765;-74
2022/09/18 07:01:12;;;;;;;10.20;6.10;;;;;;;9.31;84.69;97754.81;88629;1275;22654;-74
2022/09/18 07:03:14;;;;;;;11.90;6.40;;;;;;;9.33;84.65;97753.56;88612;1272;99093;-75
2022/09/18 07:05:15;;;;;;;7.00;5.80;;;;;;;9.35;84.52;97758.90;88441;1275;22903;-74
2022/09/18 07:07:17;;;;;;;8.20;5.60;;;;;;;9.36;84.49;97760.95;88732;1275;22582;-73
2022/09/18 07:09:19;;;;;;;9.10;6.40;;;;;;;9.37;84.23;97759.98;88646;1275;97814;-74
2022/09/18 07:11:20;;;;;;;7.70;5.30;;;;;;;9.40;84.40;97756.89;88685;1274;22564;-75
2022/09/18 07:13:22;;;;;;;15.60;6.80;;;;;;;9.43;84.39;97760.35;88484;1275;24278;-73
2022/09/18 07:15:25;;;;;;;6.30;5.70;;;;;;;9.47;84.32;97758.71;88331;1274;100466;-74
2022/09/18 07:17:27;;;;;;;9.20;5.80;;;;;;;9.52;84.38;97761.91;88628;1275;25346;-75
2022/09/18 07:19:29;;;;;;;8.10;5.40;;;;;;;9.55;84.14;97758.58;88787;1274;25285;-75
2022/09/18 07:21:31;;;;;;;10.20;5.20;;;;;;;9.59;84.24;97761.63;88661;1274;98999;-73
2022/09/18 07:23:33;;;;;;;5.80;4.90;;;;;;;9.61;84.43;97763.23;88731;1274;22701;-71
2022/09/18 07:25:35;;;;;;;7.70;4.80;;;;;;;9.63;84.22;97758.55;88716;1274;23296;-73
2022/09/18 07:27:36;;;;;;;11.50;5.10;;;;;;;9.63;83.88;97762.61;88790;1274;99289;-75
2022/09/18 07:29:38;;;;;;;8.10;5.20;;;;;;;9.61;83.76;97763.23;88877;1274;22779;-74
2022/09/18 07:31:40;;;;;;;11.40;5.80;;;;;;;9.63;83.87;97764.16;88818;1272;23087;-73
2022/09/18 07:33:43;;;;;;;6.20;5.40;;;;;;;9.66;83.99;97761.16;88902;1273;99702;-72
2022/09/18 07:35:45;;;;;;;6.40;4.50;;;;;;;9.69;84.01;97761.31;89000;1274;22701;-74
2022/09/18 07:37:46;;;;;;;8.70;4.90;;;;;;;9.73;83.91;97761.08;89002;1275;22570;-74
2022/09/18 07:39:48;;;;;;;8.60;4.80;;;;;;;9.75;83.94;97761.15;88640;1278;99426;-73
2022/09/18 07:41:50;;;;;;;12.40;5.00;;;;;;;9.75;84.10;97754.08;88561;1277;25403;-74
2022/09/18 07:43:52;;;;;;;8.00;4.50;;;;;;;9.82;84.09;97755.23;88715;1274;22589;-72
2022/09/18 07:45:54;;;;;;;9.00;5.00;;;;;;;9.88;84.22;97751.52;88653;1274;97791;-72
2022/09/18 07:47:56;;;;;;;12.00;4.10;;;;;;;9.93;84.12;97752.40;88726;1273;24359;-74
2022/09/18 07:49:57;;;;;;;6.30;3.90;;;;;;;9.97;84.05;97753.72;88577;1278;26747;-74
2022/09/18 07:52:00;;;;;;;6.20;4.00;;;;;;;9.99;83.90;97753.80;88450;1277;98950;-73
2022/09/18 07:54:02;;;;;;;5.80;4.10;;;;;;;10.00;84.00;97756.36;88702;1275;23265;-73
2022/09/18 07:56:11;;;;;;;6.80;4.00;;;;;;;10.00;83.78;97759.86;88722;1274;22717;-74
2022/09/18 07:58:13;;;;;;;5.80;3.40;;;;;;;10.01;83.91;97762.80;88773;1274;97859;-73
2022/09/18 08:00:15;;;;;;;7.60;3.60;;;;;;;10.02;83.91;97766.24;88638;1274;23291;-74
2022/09/18 08:02:17;;;;;;;4.50;3.20;;;;;;;10.03;83.90;97768.95;88586;1274;22550;-73
2022/09/18 08:04:18;;;;;;;4.70;3.30;;;;;;;10.04;83.75;97765.38;88685;1274;98979;-72
2022/09/18 08:06:20;;;;;;;6.60;3.00;;;;;;;10.06;83.58;97766.88;88712;1275;22550;-74
2022/09/18 08:08:22;;;;;;;5.60;3.30;;;;;;;10.04;83.53;97766.41;88852;1275;24134;-73
2022/09/18 08:10:24;;;;;;;4.20;2.90;;;;;;;10.03;83.54;97762.11;88604;1277;99063;-74
2022/09/18 08:12:25;;;;;;;4.10;3.10;;;;;;;10.04;83.32;97766.96;88484;1277;26596;-72
2022/09/18 08:14:27;;;;;;;5.10;3.10;;;;;;;10.07;83.58;97764.31;88754;1275;23088;-73
2022/09/18 08:16:29;;;;;;;3.20;2.90;;;;;;;10.10;83.53;97768.03;88797;1274;99242;-75
2022/09/18 08:18:34;;;;;;;3.70;3.10;;;;;;;10.09;83.42;97768.41;88892;1274;22729;-74
2022/09/18 08:20:37;;;;;;;2.90;2.60;;;;;;;10.11;83.49;97770.55;89052;1275;23029;-73
2022/09/18 08:22:40;;;;;;;8.10;2.90;;;;;;;10.15;83.49;97771.52;88581;1274;99717;-73
2022/09/18 08:24:42;;;;;;;3.30;2.60;;;;;;;10.18;83.42;97768.34;88522;1275;25264;-74
2022/09/18 08:26:45;;;;;;;2.70;2.50;;;;;;;10.21;83.47;97767.58;88671;1274;22773;-72
2022/09/18 08:28:47;;;;;;;2.50;2.30;;;;;;;10.23;83.40;97762.24;88430;1274;100206;-73
2022/09/18 08:30:48;;;;;;;2.90;2.70;;;;;;;10.26;83.17;97763.42;88558;1275;24631;-72
2022/09/18 08:32:50;;;;;;;3.30;2.50;;;;;;;10.31;83.18;97760.30;88327;1277;22661;-74
2022/09/18 08:34:52;;;;;;;5.60;2.80;;;;;;;10.36;83.21;97758.05;88319;1277;99610;-74
2022/09/18 08:36:54;;;;;;;8.70;2.60;;;;;;;10.42;82.90;97761.35;88612;1274;22571;-75
2022/09/18 08:38:56;;;;;;;3.50;2.60;;;;;;;10.48;82.94;97756.03;88484;1275;22621;-74
2022/09/18 08:41:00;;;;;;;4.40;2.60;;;;;;;10.49;82.60;97753.52;88322;1277;99316;-72
2022/09/18 08:43:13;;;;;;;8.10;2.70;;;;;;;10.51;82.55;97752.67;88538;1275;23119;-74
2022/09/18 08:45:14;;;;;;;7.60;2.30;;;;;;;10.48;82.29;97754.98;88330;1275;99908;-74
2022/09/18 08:47:51;;;;;;;9.20;2.80;;;;;;;10.46;82.16;97758.31;88598;1274;22648;-75
2022/09/18 08:50:23;;;;;;;2.90;2.00;;;;;;;10.43;82.16;97757.61;88491;1274;24253;-74
2022/09/18 08:52:33;;;;;;;3.10;2.20;;;;;;;10.39;81.98;97759.61;88395;1272;99058;-74
2022/09/18 08:55:09;;;;;;;7.80;2.30;;;;;;;10.35;81.64;97756.38;88444;1274;26696;-73
2022/09/18 08:57:36;;;;;;;2.80;1.80;;;;;;;10.33;81.91;97757.70;88811;1274;99561;-73
2022/09/18 08:59:43;;;;;;;1.90;1.80;;;;;;;10.33;81.82;97758.41;88591;1274;22659;-72
2022/09/18 09:02:12;;;;;;;4.40;2.20;;;;;;;10.38;81.83;97755.83;88547;1274;22684;-73
2022/09/18 09:04:24;;;;;;;2.10;1.90;;;;;;;10.54;82.09;97752.98;88557;1271;98950;-74
2022/09/18 09:06:43;;;;;;;2.50;1.70;;;;;;;10.67;82.20;97745.96;88598;1274;22774;-74
2022/09/18 09:09:19;;;;;;;8.20;1.80;;;;;;;10.77;81.85;97749.73;88758;1274;22681;-74
2022/09/18 09:11:46;;;;;;;2.80;1.70;;;;;;;10.82;81.58;97753.58;88601;1274;22624;-73
2022/09/18 09:13:57;;;;;;;3.10;2.10;;;;;;;10.83;81.42;97752.95;88753;1271;24024;-72
2022/09/18 09:16:27;;;;;;;1.60;1.50;;;;;;;10.83;81.39;97750.53;88795;1274;99508;-74
2022/09/18 09:18:49;;;;;;;3.20;2.30;;;;;;;10.81;81.28;97752.90;88786;1274;23512;-74
2022/09/18 09:20:52;;;;;;;;;;;;;;;10.80;80.96;97753.04;88637;1277;22570;-72
2022/09/18 09:22:59;;;;;;;4.20;1.90;;;;;;;10.75;80.88;97753.87;88456;1275;84372;-72
2022/09/18 09:25:25;;;;;;;1.70;1.60;;;;;;;10.73;81.18;97754.14;88660;1273;22564;-72
2022/09/18 09:27:51;;;;;;;1.70;1.60;;;;;;;10.70;81.08;97753.14;88352;1274;100979;-72
2022/09/18 09:30:04;;;;;;;1.90;1.70;;;;;;;10.68;81.24;97753.80;88781;1274;22768;-73
2022/09/18 09:32:24;;;;;;;7.20;1.90;;;;;;;10.64;80.93;97758.64;88466;1276;22599;-74
2022/09/18 09:34:43;;;;;;;3.60;2.10;;;;;;;10.58;81.05;97756.92;88580;1274;99083;-75
2022/09/18 09:36:52;;;;;;;2.50;2.20;;;;;;;10.52;81.43;97759.79;88546;1274;22583;-73
2022/09/18 09:39:25;;;;;;;2.90;2.00;;;;;;;10.46;81.54;97755.63;88943;1275;23993;-74
2022/09/18 09:41:43;;;;;;;5.00;2.20;;;;;;;10.39;81.64;97756.43;88529;1274;22981;-74
2022/09/18 09:43:48;;;;;;;4.30;2.00;;;;;;;10.37;81.90;97758.13;88539;1274;22554;-74
2022/09/18 09:45:53;;;;;;;4.30;2.00;;;;;;;10.36;81.97;97750.67;88516;1277;98972;-73
2022/09/18 09:48:11;;;;;;;1.90;1.80;;;;;;;10.45;82.22;97746.60;88461;1276;24172;-74
2022/09/18 09:50:25;;;;;;;3.30;2.20;;;;;;;10.60;82.30;97749.09;88524;1274;22616;-73
2022/09/18 09:52:30;;;;;;;2.50;1.70;;;;;;;10.78;81.98;97747.88;88471;1273;99013;-73
2022/09/18 09:54:33;;;;;;;3.70;2.10;;;;;;;10.91;81.72;97745.89;88660;1276;24781;-74